Time;durP1;ratioP1;P1;durP2;ratioP2;P2;SDS_P1;SDS_P2;PMS_P1;PMS_P2;Temp;Humidity;BMP_temperature;BMP_pressure;BME280_temperature;BME280_humidity;BME280_pressure;Samples;Min_cycle;Max_cycle;Signal;HPM_P1;HPM_P2
2021/12/26 00:03:02;;;;;;;15.80;7.78;;;;;;;-4.19;60.94;97351.44;9821775;30;20067;-79
2021/12/26 00:08:23;;;;;;;15.23;8.23;;;;;;;-4.17;60.67;97355.13;9797673;30;20056;-79
2021/12/26 00:13:43;;;;;;;16.45;7.22;;;;;;;-4.26;60.88;97341.81;9797956;30;20064;-79
2021/12/26 00:19:04;;;;;;;15.52;7.75;;;;;;;-4.26;60.67;97336.34;9797502;30;20052;-79
2021/12/26 00:24:25;;;;;;;16.13;7.25;;;;;;;-4.35;61.33;97347.56;9797348;30;20070;-79
2021/12/26 00:29:46;;;;;;;18.45;7.90;;;;;;;-4.27;60.92;97345.03;9797144;30;20048;-79
2021/12/26 00:35:08;;;;;;;15.75;7.95;;;;;;;-4.34;61.44;97344.34;9809269;30;20047;-79
2021/12/26 00:40:29;;;;;;;18.95;8.60;;;;;;;-4.46;61.32;97334.72;9821149;30;20071;-79
2021/12/26 00:45:50;;;;;;;18.90;7.88;;;;;;;-4.43;61.54;97331.03;9809060;30;20058;-79
2021/12/26 00:51:11;;;;;;;13.60;6.93;;;;;;;-4.52;61.75;97352.38;9808871;30;20086;-79
2021/12/26 00:56:32;;;;;;;17.08;7.13;;;;;;;-4.59;61.55;97345.47;9809098;30;20478;-79
2021/12/26 01:01:54;;;;;;;16.33;7.72;;;;;;;-4.58;61.46;97344.22;9796777;30;20068;-79
2021/12/26 01:08:16;;;;;;;16.60;7.80;;;;;;;-4.63;61.97;97353.16;9782932;30;20399;-79
2021/12/26 01:13:20;;;;;;;17.67;8.60;;;;;;;-4.71;62.12;97352.94;9812464;30;20056;-79
2021/12/26 01:18:45;;;;;;;17.52;8.02;;;;;;;-4.68;62.15;97353.91;9807298;30;20399;-79
2021/12/26 01:24:08;;;;;;;17.00;7.22;;;;;;;-4.77;61.76;97337.84;9803195;30;20079;-79
2021/12/26 01:29:30;;;;;;;16.47;8.00;;;;;;;-4.79;62.14;97341.09;9803242;30;20059;-79
2021/12/26 01:34:51;;;;;;;16.63;8.18;;;;;;;-4.84;62.00;97338.38;9802684;30;20487;-79
2021/12/26 01:40:35;;;;;;;18.42;7.68;;;;;;;-4.98;62.23;97340.91;9809889;30;20048;-79
2021/12/26 01:46:04;;;;;;;14.00;7.25;;;;;;;-5.00;62.44;97348.09;9806396;30;20051;-79
2021/12/26 01:51:26;;;;;;;17.23;7.97;;;;;;;-5.05;62.46;97343.41;9802582;30;20044;-79
2021/12/26 01:56:48;;;;;;;14.10;7.30;;;;;;;-5.17;62.28;97339.97;9814459;30;20061;-79
2021/12/26 02:02:09;;;;;;;16.48;7.93;;;;;;;-5.18;62.92;97339.22;9813804;30;20052;-79
2021/12/26 02:07:30;;;;;;;18.48;8.45;;;;;;;-5.15;62.63;97332.03;9801939;30;20152;-79
2021/12/26 02:12:52;;;;;;;17.50;8.30;;;;;;;-5.26;62.97;97338.25;9813985;30;20048;-79
2021/12/26 02:18:13;;;;;;;17.90;8.85;;;;;;;-5.26;63.23;97342.97;9801783;30;20399;-79
2021/12/26 02:29:00;;;;;;;16.73;7.95;;;;;;;-5.33;62.80;97346.19;9802500;30;20056;-79
2021/12/26 02:34:21;;;;;;;16.88;8.70;;;;;;;-5.31;62.73;97335.53;9812945;30;20064;-79
2021/12/26 02:39:42;;;;;;;16.23;8.13;;;;;;;-5.37;62.89;97337.53;9812710;30;20118;-79
2021/12/26 02:45:04;;;;;;;18.60;8.63;;;;;;;-5.38;63.02;97344.22;9800497;30;20052;-79
2021/12/26 02:50:27;;;;;;;16.38;7.65;;;;;;;-5.48;63.17;97344.47;9812621;30;20114;-79
2021/12/26 02:55:49;;;;;;;17.52;8.27;;;;;;;-5.57;62.86;97342.00;9788362;30;20052;-79
2021/12/26 03:01:12;;;;;;;18.83;8.73;;;;;;;-5.58;63.00;97348.69;9799971;30;20063;-79
2021/12/26 03:06:42;;;;;;;20.92;8.98;;;;;;;-5.52;63.36;97349.41;9812136;30;20484;-79
2021/12/26 03:12:06;;;;;;;22.05;8.65;;;;;;;-5.61;63.04;97346.94;9814522;30;20051;-79
2021/12/26 03:17:27;;;;;;;18.13;8.50;;;;;;;-5.67;63.24;97343.50;9812166;30;20059;-79
2021/12/26 03:22:48;;;;;;;23.15;9.02;;;;;;;-5.72;63.08;97346.97;9799236;30;20052;-79
2021/12/26 03:28:09;;;;;;;17.42;8.38;;;;;;;-5.78;63.14;97354.38;9786842;30;20060;-79
2021/12/26 03:33:30;;;;;;;18.85;8.90;;;;;;;-5.81;63.25;97356.09;9798442;30;20056;-79
2021/12/26 03:38:51;;;;;;;17.20;8.38;;;;;;;-5.87;63.30;97355.38;9798094;30;20059;-79
2021/12/26 03:44:19;;;;;;;18.05;8.15;;;;;;;-5.84;63.22;97356.34;9786227;30;20117;-79
2021/12/26 03:49:42;;;;;;;20.02;8.95;;;;;;;-5.83;63.36;97355.13;9798427;30;20056;-79
2021/12/26 03:55:02;;;;;;;17.10;8.20;;;;;;;-5.96;63.30;97365.78;9784513;30;20052;-79
2021/12/26 04:00:25;;;;;;;18.38;8.82;;;;;;;-5.95;63.81;97359.09;9794526;30;20408;-79
2021/12/26 04:05:45;;;;;;;15.45;7.95;;;;;;;-5.94;63.53;97358.59;9795649;30;20063;-79
2021/12/26 04:11:06;;;;;;;21.23;9.38;;;;;;;-5.92;63.65;97355.38;9796805;30;20059;-79
2021/12/26 04:16:27;;;;;;;20.63;8.77;;;;;;;-5.93;63.58;97356.63;9785371;30;20049;-79
2021/12/26 04:21:49;;;;;;;18.90;8.90;;;;;;;-5.91;63.70;97351.44;9809856;30;20056;-79
2021/12/26 04:27:10;;;;;;;19.83;9.20;;;;;;;-5.90;63.37;97348.19;9797372;30;20048;-79
2021/12/26 04:32:30;;;;;;;17.60;8.50;;;;;;;-5.90;63.46;97348.19;9808920;30;20048;-79
2021/12/26 04:37:51;;;;;;;18.77;8.48;;;;;;;-5.92;63.58;97341.78;9784687;30;20052;-79
2021/12/26 04:43:12;;;;;;;19.50;8.60;;;;;;;-5.96;63.68;97355.66;9809555;30;20063;-79
2021/12/26 04:48:53;;;;;;;20.25;8.48;;;;;;;-5.92;63.31;97356.13;9815802;30;20056;-79
2021/12/26 04:54:13;;;;;;;16.33;8.23;;;;;;;-5.92;63.03;97349.94;9809138;30;20053;-79
2021/12/26 04:59:37;;;;;;;14.68;8.05;;;;;;;-6.00;63.37;97348.94;9800890;30;20044;-79
2021/12/26 05:04:57;;;;;;;19.65;9.05;;;;;;;-6.02;63.29;97359.56;9805107;30;20518;-79
2021/12/26 05:10:18;;;;;;;16.73;8.60;;;;;;;-6.07;63.54;97353.66;9798569;30;20040;-79
2021/12/26 05:15:40;;;;;;;16.95;8.50;;;;;;;-6.10;63.88;97357.34;9798540;30;20044;-79
2021/12/26 05:21:05;;;;;;;18.10;8.80;;;;;;;-6.06;63.88;97362.56;9806342;30;20124;-79
2021/12/26 05:26:35;;;;;;;18.52;8.73;;;;;;;-6.02;63.80;97356.88;9811747;30;20135;-79
2021/12/26 05:31:56;;;;;;;18.75;8.38;;;;;;;-6.02;63.57;97357.59;9799467;30;20059;-79
2021/12/26 05:37:16;;;;;;;19.52;9.38;;;;;;;-6.06;63.81;97357.84;9800742;30;20040;-79
2021/12/26 05:42:37;;;;;;;18.48;8.57;;;;;;;-6.10;63.83;97360.06;9783468;30;20124;-79
2021/12/26 05:47:58;;;;;;;17.58;8.75;;;;;;;-6.06;63.76;97357.84;9784323;30;20095;-79
2021/12/26 05:53:19;;;;;;;18.08;8.23;;;;;;;-6.11;63.99;97360.56;9815263;30;20052;-79
2021/12/26 05:58:40;;;;;;;17.70;8.90;;;;;;;-6.13;63.90;97347.47;9816696;30;20100;-79
2021/12/26 06:04:01;;;;;;;19.38;8.27;;;;;;;-6.15;63.82;97355.38;9800991;30;20068;-79
2021/12/26 06:09:22;;;;;;;21.33;8.52;;;;;;;-6.10;63.72;97362.78;9785652;30;20064;-79
2021/12/26 06:14:43;;;;;;;18.05;9.30;;;;;;;-6.06;64.25;97355.13;9780144;30;20055;-79
2021/12/26 06:20:04;;;;;;;17.65;8.75;;;;;;;-6.01;63.85;97355.63;9800548;30;20056;-79
2021/12/26 06:25:29;;;;;;;22.20;11.75;;;;;;;-6.10;64.04;97362.78;9789734;30;20040;-79
2021/12/26 06:31:04;;;;;;;21.67;9.65;;;;;;;-6.10;64.13;97362.78;9796106;30;20036;-79
2021/12/26 06:36:28;;;;;;;23.73;9.88;;;;;;;-6.09;63.98;97358.06;9800665;30;20044;-79
2021/12/26 06:42:08;;;;;;;19.70;8.98;;;;;;;-6.17;64.42;97367.97;9808052;30;20055;-79
2021/12/26 06:47:56;;;;;;;22.42;9.80;;;;;;;-6.10;64.28;97368.22;9797783;30;20488;-79
2021/12/26 06:53:17;;;;;;;17.48;9.55;;;;;;;-6.09;64.22;97366.22;9794038;30;20045;-79
2021/12/26 06:58:40;;;;;;;18.70;10.07;;;;;;;-6.11;63.96;97372.16;9794253;30;20048;-79
2021/12/26 07:04:01;;;;;;;18.00;9.10;;;;;;;-6.07;64.12;97377.38;9776523;30;20065;-80
2021/12/26 07:09:21;;;;;;;19.10;9.43;;;;;;;-5.91;64.01;97373.91;9775722;30;20099;-79
2021/12/26 07:14:47;;;;;;;17.73;9.40;;;;;;;-5.74;64.15;97382.06;9776742;30;20614;-78
2021/12/26 07:20:09;;;;;;;21.20;10.25;;;;;;;-5.57;63.83;97390.97;9781339;30;20044;-81
2021/12/26 07:25:55;;;;;;;18.88;9.98;;;;;;;-4.95;63.70;97399.78;9794431;30;20147;-81
2021/12/26 07:31:16;;;;;;;22.05;11.32;;;;;;;-4.29;63.01;97402.03;9780038;30;20048;-81
2021/12/26 07:36:40;;;;;;;22.80;11.07;;;;;;;-3.99;61.80;97410.31;9784384;30;20059;-83
2021/12/26 07:42:43;;;;;;;21.90;11.02;;;;;;;-2.91;61.58;97412.44;10310922;24;20122;31
2021/12/26 07:49:05;;;;;;;22.80;11.10;;;;;;;-0.35;57.82;97415.34;9835867;30;20036;-83
2021/12/26 07:54:56;;;;;;;20.95;10.45;;;;;;;0.59;56.79;97427.56;9818416;30;20039;-80
2021/12/26 08:00:49;;;;;;;21.77;11.82;;;;;;;0.07;56.39;97429.22;9839045;30;20044;-85
2021/12/26 08:25:13;;;;;;;21.95;11.07;;;;;;;-3.26;59.46;97422.19;10622413;24;20047;-86
2021/12/26 09:27:45;;;;;;;22.80;12.90;;;;;;;-2.14;58.08;97431.94;11943019;24;20031;31
2021/12/26 10:39:43;;;;;;;24.23;13.65;;;;;;;-1.10;53.60;97402.03;12771794;22;1342995;-83
2021/12/26 10:45:17;;;;;;;28.27;13.82;;;;;;;-1.14;54.13;97393.41;12751196;23;20009;-84
2021/12/26 10:50:57;;;;;;;28.98;14.32;;;;;;;-1.14;54.83;97384.44;12759793;23;20017;-85
2021/12/26 11:02:34;;;;;;;25.38;13.57;;;;;;;-1.08;55.01;97377.59;12716697;23;20082;-83
2021/12/26 11:08:04;;;;;;;27.63;14.82;;;;;;;-1.18;54.34;97373.78;12690342;23;20017;-85
2021/12/26 11:13:33;;;;;;;26.25;13.38;;;;;;;-1.12;54.84;97377.16;12685254;23;20022;-81
2021/12/26 11:19:09;;;;;;;24.13;13.13;;;;;;;-1.06;54.11;97366.88;12724433;23;20054;-82
2021/12/26 11:24:31;;;;;;;21.58;12.25;;;;;;;-1.10;53.64;97352.72;12690777;23;20009;-78
2021/12/26 11:29:54;;;;;;;27.90;13.68;;;;;;;-1.05;53.26;97365.59;12632578;23;20018;-79
2021/12/26 11:35:15;;;;;;;26.88;13.38;;;;;;;-1.00;53.28;97351.03;12634713;23;20532;-78
2021/12/26 11:40:36;;;;;;;33.38;14.82;;;;;;;-0.87;51.56;97348.34;12661811;23;20014;-78
2021/12/26 11:47:05;;;;;;;22.25;11.98;;;;;;;-0.88;52.86;97346.81;12636763;23;20022;-79
2021/12/26 11:53:12;;;;;;;22.98;12.90;;;;;;;-0.76;52.33;97352.84;12666921;23;20433;-78
2021/12/26 11:59:19;;;;;;;22.60;13.40;;;;;;;-0.91;52.55;97345.16;12640513;23;20045;-77
2021/12/26 12:04:40;;;;;;;25.52;14.27;;;;;;;-0.91;51.73;97336.94;12634839;23;20018;-80
2021/12/26 12:10:01;;;;;;;26.90;13.88;;;;;;;-1.03;52.28;97345.88;12639330;23;20024;-80
2021/12/26 12:15:54;;;;;;;22.92;12.68;;;;;;;-1.00;52.77;97339.34;12779870;23;20017;-80
2021/12/26 12:21:19;;;;;;;25.10;13.90;;;;;;;-0.96;52.57;97339.78;12820989;23;20021;-79
2021/12/26 12:26:56;;;;;;;25.33;14.15;;;;;;;-1.12;52.78;97336.09;12871536;23;20073;-82
2021/12/26 12:32:22;;;;;;;27.20;14.18;;;;;;;-1.08;53.03;97335.75;12854168;23;20012;-81
2021/12/26 12:37:47;;;;;;;24.48;11.95;;;;;;;-1.12;51.89;97333.34;12826749;23;20032;-80
2021/12/26 12:43:08;;;;;;;;;;;;;;;-1.15;52.37;97337.16;12832098;23;20008;-81
2021/12/26 12:54:34;;;;;;;22.35;12.98;;;;;;;-1.32;52.76;97331.97;12840193;23;20025;-81
2021/12/26 12:59:55;;;;;;;24.80;12.23;;;;;;;-1.23;53.06;97333.56;12836509;23;20077;-80
2021/12/26 13:05:36;;;;;;;21.75;11.75;;;;;;;-1.22;52.83;97324.81;12780542;23;20144;-77
2021/12/26 13:10:56;;;;;;;18.77;10.90;;;;;;;-1.15;51.93;97331.66;12803136;23;20028;-81
2021/12/26 13:16:18;;;;;;;20.63;11.95;;;;;;;-1.19;52.46;97331.97;12783850;23;20025;-78
2021/12/26 13:21:40;;;;;;;22.27;12.57;;;;;;;-1.33;52.27;97325.00;12744389;23;20017;-78
2021/12/26 13:27:02;;;;;;;22.40;11.82;;;;;;;-1.51;52.04;97326.56;12810604;23;20017;-77
2021/12/26 13:32:32;;;;;;;21.77;11.40;;;;;;;-1.58;52.48;97320.94;12784630;23;20321;-83
2021/12/26 13:37:55;;;;;;;20.02;10.63;;;;;;;-1.72;51.38;97320.19;12751497;23;20436;-77
2021/12/26 13:43:31;;;;;;;23.65;11.63;;;;;;;-1.72;52.08;97331.13;12795942;23;20017;-77
2021/12/26 13:48:54;;;;;;;23.35;11.10;;;;;;;-1.87;51.84;97331.59;12773628;23;20041;-81
2021/12/26 13:54:19;;;;;;;23.02;11.38;;;;;;;-1.89;51.91;97330.66;12789535;23;20016;-82
2021/12/26 13:59:42;;;;;;;;;;;;;;;-1.98;51.23;97318.09;12820448;23;20100;-78
2021/12/26 14:05:06;;;;;;;22.70;10.93;;;;;;;-2.04;52.31;97315.44;12787916;23;19916;-79
2021/12/26 14:10:27;;;;;;;17.65;10.65;;;;;;;-2.10;52.34;97323.00;12729783;23;20013;-77
2021/12/26 14:15:55;;;;;;;19.75;10.68;;;;;;;-2.05;52.12;97329.63;12701539;23;20029;-78
2021/12/26 14:21:20;;;;;;;18.35;10.23;;;;;;;-2.14;51.79;97333.47;12699409;23;20013;-79
2021/12/26 14:26:42;;;;;;;21.02;10.75;;;;;;;-2.17;52.47;97329.06;12681748;23;20021;-78
2021/12/26 14:32:06;;;;;;;21.35;9.90;;;;;;;-2.27;50.49;97329.94;12698658;23;20310;-78
2021/12/26 14:37:27;;;;;;;20.27;10.38;;;;;;;-2.30;51.10;97329.00;12677998;23;20436;-78
2021/12/26 14:42:50;;;;;;;19.08;9.32;;;;;;;-2.32;51.77;97342.44;12717129;23;20102;-76
2021/12/26 14:48:23;;;;;;;20.17;9.57;;;;;;;-2.26;51.39;97337.63;12748853;23;20022;-76
2021/12/26 14:54:04;;;;;;;26.75;13.40;;;;;;;-2.28;51.95;97331.94;12708647;23;20021;-83
2021/12/26 14:59:33;;;;;;;17.17;8.98;;;;;;;-2.27;51.64;97340.88;12717333;23;20473;-80
2021/12/26 15:05:05;;;;;;;19.77;9.80;;;;;;;-2.32;51.48;97350.63;12665710;23;20069;-80
2021/12/26 15:10:56;;;;;;;22.05;10.05;;;;;;;-2.38;52.18;97347.25;12680388;23;20033;-78
2021/12/26 15:16:41;;;;;;;22.95;9.90;;;;;;;-2.30;51.56;97342.69;12549387;23;20028;-75
2021/12/26 15:22:36;;;;;;;18.63;9.38;;;;;;;-2.23;52.47;97342.06;12658389;23;20133;-82
2021/12/26 15:28:08;;;;;;;20.88;9.80;;;;;;;-2.26;51.75;97339.63;12677369;23;20018;-80
2021/12/26 15:33:50;;;;;;;20.80;9.40;;;;;;;-2.39;51.91;97356.72;12718159;23;20049;-84
2021/12/26 15:39:13;;;;;;;22.27;9.27;;;;;;;-2.35;51.92;97349.69;12733214;23;20064;-79
2021/12/26 15:44:37;;;;;;;15.73;8.77;;;;;;;-2.29;51.41;97351.63;12777616;23;20014;-76
2021/12/26 15:49:57;;;;;;;18.15;8.88;;;;;;;-2.37;51.81;97357.66;12749277;23;20017;-76
2021/12/26 15:55:19;;;;;;;21.95;9.05;;;;;;;-2.38;51.68;97350.72;12706007;23;20025;-76
2021/12/26 16:00:40;;;;;;;19.83;9.23;;;;;;;-2.35;51.78;97346.94;12764848;23;20017;-81
2021/12/26 16:06:02;;;;;;;19.58;9.02;;;;;;;-2.28;51.80;97342.16;12704568;23;20021;-77
2021/12/26 16:11:24;;;;;;;19.15;9.25;;;;;;;-2.33;51.51;97335.50;12749300;23;20081;-81
2021/12/26 16:16:45;;;;;;;21.45;10.48;;;;;;;-2.36;51.63;97334.53;12762578;23;20021;-82
2021/12/26 16:22:07;;;;;;;19.13;8.73;;;;;;;-2.32;51.83;97326.78;12756946;23;20137;-82
2021/12/26 16:27:28;;;;;;;19.85;9.82;;;;;;;-2.36;51.79;97325.59;12745210;23;20028;-83
2021/12/26 16:32:49;;;;;;;20.17;10.00;;;;;;;-2.41;51.29;97340.84;12758656;23;20005;-82
2021/12/26 16:38:14;;;;;;;21.55;10.35;;;;;;;-2.36;52.02;97345.47;12745904;23;20026;-81
2021/12/26 16:43:35;;;;;;;21.55;10.52;;;;;;;-2.36;51.85;97342.00;12767393;23;20519;-83
2021/12/26 16:49:00;;;;;;;19.65;11.75;;;;;;;-2.39;52.20;97341.03;12757999;23;20001;-83
2021/12/26 16:54:25;;;;;;;24.90;12.18;;;;;;;-2.40;52.39;97339.56;12776485;23;20005;-84
2021/12/26 16:59:47;;;;;;;25.23;11.75;;;;;;;-2.38;52.06;97336.31;12775858;23;20005;-81
2021/12/26 17:05:08;;;;;;;25.30;12.05;;;;;;;-2.44;52.34;97335.63;12751045;23;20033;-81
2021/12/26 17:10:31;;;;;;;23.35;12.25;;;;;;;-2.55;52.07;97328.31;12773720;23;20002;-82
2021/12/26 17:15:55;;;;;;;24.00;12.90;;;;;;;-2.66;52.92;97318.28;12774890;23;20344;-81
2021/12/26 17:21:16;;;;;;;24.55;12.60;;;;;;;-2.71;52.70;97332.00;12754448;23;20041;-83
2021/12/26 17:26:38;;;;;;;22.85;12.57;;;;;;;-2.66;53.32;97337.41;12752352;23;20022;-82
2021/12/26 17:32:01;;;;;;;27.48;12.80;;;;;;;-2.47;52.76;97342.88;12729175;23;20005;-83
2021/12/26 17:37:24;;;;;;;27.38;13.20;;;;;;;-2.32;52.87;97353.38;12712335;23;20021;-82
2021/12/26 17:43:04;;;;;;;26.40;13.85;;;;;;;-2.20;53.38;97362.91;12815538;23;20436;-83
2021/12/26 17:48:55;;;;;;;31.80;13.60;;;;;;;-2.17;52.79;97361.88;12846670;22;20020;-86
2021/12/26 17:55:03;;;;;;;24.60;12.15;;;;;;;-2.08;52.67;97347.81;12861375;23;20021;-79
2021/12/26 18:00:24;;;;;;;28.13;13.45;;;;;;;-1.95;53.19;97349.88;12822322;23;20012;-82
2021/12/26 18:05:46;;;;;;;23.55;12.70;;;;;;;-1.95;53.09;97349.13;12847250;23;20065;-81
2021/12/26 18:11:31;;;;;;;23.50;12.95;;;;;;;-2.00;52.70;97347.22;12767214;23;20025;-86
2021/12/26 18:17:30;;;;;;;27.58;12.88;;;;;;;-1.94;52.63;97336.94;12816687;23;20024;-86
2021/12/26 18:23:08;;;;;;;22.05;12.18;;;;;;;-1.99;53.04;97329.56;12792669;23;20017;-82
2021/12/26 18:28:31;;;;;;;22.55;13.07;;;;;;;-2.00;52.65;97330.81;12762168;23;20017;-77
2021/12/26 18:33:59;;;;;;;22.98;12.60;;;;;;;-1.98;53.00;97328.28;12761360;23;20375;-81
2021/12/26 18:39:21;;;;;;;27.17;12.45;;;;;;;-1.95;52.84;97338.19;12780838;23;20021;-83
2021/12/26 18:44:43;;;;;;;23.17;11.85;;;;;;;-1.96;52.92;97342.19;12783541;23;20017;-84
2021/12/26 18:50:04;;;;;;;28.38;13.80;;;;;;;-1.97;53.35;97324.31;12805929;23;20021;-84
2021/12/26 18:55:26;;;;;;;27.88;13.35;;;;;;;-2.03;53.40;97327.88;12769093;23;20021;-86
2021/12/26 19:07:12;;;;;;;;;;;;;;;-2.00;53.83;97317.88;12768996;22;21091;-85
2021/12/26 19:19:42;;;;;;;23.23;12.35;;;;;;;-1.94;52.98;97329.47;12814784;22;20027;-86
2021/12/26 19:25:11;;;;;;;23.25;11.98;;;;;;;-1.98;53.55;97333.78;12745101;22;20011;-85
2021/12/26 19:32:18;;;;;;;23.73;12.27;;;;;;;-1.97;53.50;97327.03;12703130;23;20010;-87
2021/12/26 19:38:05;;;;;;;24.33;12.40;;;;;;;-2.09;53.56;97321.75;12517873;23;20029;-86
2021/12/26 19:43:39;;;;;;;28.65;13.73;;;;;;;-2.17;53.49;97307.19;12908921;23;20103;-85
2021/12/26 19:56:52;;;;;;;28.10;13.75;;;;;;;-2.49;54.54;97311.88;12770292;23;20008;-79
2021/12/26 20:02:46;;;;;;;27.25;15.02;;;;;;;-2.42;54.89;97314.00;12720130;23;20121;-84
2021/12/26 20:08:43;;;;;;;31.25;14.68;;;;;;;-2.33;54.97;97308.88;12755015;22;20031;-84
2021/12/26 20:15:21;;;;;;;27.70;14.30;;;;;;;-2.12;54.37;97305.63;12747123;22;20045;31
2021/12/26 20:20:59;;;;;;;30.33;15.05;;;;;;;-2.04;54.93;97298.28;12702958;23;20423;-83
2021/12/26 20:26:35;;;;;;;27.05;14.95;;;;;;;-1.90;54.93;97305.28;12698053;23;20018;-84
2021/12/26 20:32:14;;;;;;;28.27;14.57;;;;;;;-1.79;55.34;97307.09;12698127;23;20002;-84
2021/12/26 20:37:40;;;;;;;32.15;15.27;;;;;;;-1.71;54.69;97307.25;12712516;23;20025;-84
2021/12/26 20:43:11;;;;;;;27.15;14.38;;;;;;;-1.74;55.15;97303.53;12694612;23;20002;-86
2021/12/26 20:48:42;;;;;;;29.27;14.30;;;;;;;-1.68;55.10;97295.25;12690946;23;20026;-83
2021/12/26 20:54:22;;;;;;;24.08;13.98;;;;;;;-1.61;54.30;97300.84;12677583;23;20018;-84
2021/12/26 21:00:25;;;;;;;27.20;13.60;;;;;;;-1.58;54.89;97294.31;12706102;23;20042;-83
2021/12/26 21:06:08;;;;;;;28.27;15.02;;;;;;;-1.57;55.52;97295.03;12729672;23;20023;-86
2021/12/26 21:11:46;;;;;;;26.33;13.90;;;;;;;-1.54;55.05;97299.50;12699931;23;20018;-84
2021/12/26 21:17:14;;;;;;;27.08;13.57;;;;;;;-1.62;54.55;97295.91;12699334;23;20215;-85
2021/12/26 21:22:49;;;;;;;27.83;13.68;;;;;;;-1.63;54.26;97297.16;12735108;23;20020;-85
2021/12/26 21:28:22;;;;;;;31.38;14.52;;;;;;;-1.63;55.03;97297.16;12738551;23;20078;-83
2021/12/26 21:33:44;;;;;;;25.67;13.70;;;;;;;-1.50;54.73;97291.69;12730249;23;20037;-81
2021/12/26 21:39:06;;;;;;;28.48;14.23;;;;;;;-1.45;54.60;97280.66;12708383;23;20052;-80
2021/12/26 21:44:29;;;;;;;26.58;13.80;;;;;;;-1.52;55.14;97284.00;12742930;23;20035;-83
2021/12/26 21:49:53;;;;;;;28.00;14.52;;;;;;;-1.54;55.04;97281.06;12850859;22;20030;-83
2021/12/26 21:55:21;;;;;;;28.40;15.75;;;;;;;-1.52;54.50;97275.81;12864045;22;20162;-82
2021/12/26 22:00:52;;;;;;;28.85;14.90;;;;;;;-1.59;55.12;97281.16;12919880;23;20016;-82
2021/12/26 22:06:22;;;;;;;29.33;15.18;;;;;;;-1.68;55.11;97285.03;12893628;23;20000;-83
2021/12/26 22:11:54;;;;;;;28.90;15.07;;;;;;;-1.69;56.07;97280.81;12874659;23;20019;-81
2021/12/26 22:17:35;;;;;;;27.95;14.80;;;;;;;-1.66;55.97;97273.56;12885691;23;20014;-83
2021/12/26 22:23:07;;;;;;;32.17;16.00;;;;;;;-1.67;55.60;97255.66;12939143;22;20020;-81
2021/12/26 22:28:29;;;;;;;29.65;15.55;;;;;;;-1.71;55.23;97258.72;12938100;22;20012;-82
2021/12/26 22:33:51;;;;;;;30.48;15.65;;;;;;;-1.71;56.19;97255.97;12961092;22;20012;-82
2021/12/26 22:39:12;;;;;;;27.83;15.10;;;;;;;-1.67;55.94;97258.41;12941054;22;20011;-84
2021/12/26 22:44:33;;;;;;;31.83;16.50;;;;;;;-1.58;55.60;97252.53;12941545;23;20020;-82
2021/12/26 22:49:55;;;;;;;29.08;16.40;;;;;;;-1.52;55.88;97258.66;12940966;22;20019;-84
2021/12/26 22:55:17;;;;;;;32.88;16.73;;;;;;;-1.58;56.02;97263.47;12900289;22;20012;-84
2021/12/26 23:00:54;;;;;;;32.72;17.20;;;;;;;-1.52;55.99;97262.13;12916033;22;20016;-83
2021/12/26 23:06:20;;;;;;;29.75;16.02;;;;;;;-1.41;56.47;97266.66;12912475;22;20021;-84
2021/12/26 23:12:06;;;;;;;32.95;16.70;;;;;;;-1.41;56.53;97265.91;12893766;23;20013;-82
2021/12/26 23:17:42;;;;;;;33.95;16.92;;;;;;;-1.49;56.80;97263.78;12858912;23;20051;-82
2021/12/26 23:23:14;;;;;;;29.48;16.50;;;;;;;-1.46;56.52;97251.78;12875044;23;20024;-83
2021/12/26 23:28:43;;;;;;;29.35;16.30;;;;;;;-1.32;56.65;97260.03;12873351;23;20073;-83
2021/12/26 23:34:13;;;;;;;31.80;16.60;;;;;;;-1.29;56.41;97259.69;12837469;23;20020;-83
2021/12/26 23:39:52;;;;;;;28.92;16.42;;;;;;;-1.39;56.32;97246.94;12864057;23;20011;-83
2021/12/26 23:45:23;;;;;;;31.25;17.73;;;;;;;-1.47;56.25;97246.84;12859119;23;20017;-83
2021/12/26 23:50:48;;;;;;;32.72;16.48;;;;;;;-1.51;57.43;97244.44;12851150;23;20032;-83
2021/12/26 23:56:25;;;;;;;36.00;17.17;;;;;;;-1.54;57.25;97231.81;12876129;23;20021;-82
